sensor_id;sensor_type;location;lat;lon;timestamp;pressure;altitude;pressure_sealevel;temperature;humidity
62710;BME280;48770;51.624;5.886;2023-07-29T00:02:08;100589.81;;;24.67;48.43
62710;BME280;48770;51.624;5.886;2023-07-29T00:04:33;100592.19;;;24.65;48.33
62710;BME280;48770;51.624;5.886;2023-07-29T00:06:58;100589.38;;;24.65;48.31
62710;BME280;48770;51.624;5.886;2023-07-29T00:09:24;100590.19;;;24.66;48.55
62710;BME280;48770;51.624;5.886;2023-07-29T00:11:49;100589.38;;;24.65;48.09
62710;BME280;48770;51.624;5.886;2023-07-29T00:14:14;100580.63;;;24.67;48.21
62710;BME280;48770;51.624;5.886;2023-07-29T00:16:40;100575.41;;;24.65;48.18
62710;BME280;48770;51.624;5.886;2023-07-29T00:19:05;100563.03;;;24.66;48.09
62710;BME280;48770;51.624;5.886;2023-07-29T00:21:31;100551.44;;;24.64;48.48
62710;BME280;48770;51.624;5.886;2023-07-29T00:23:56;100555.84;;;24.65;48.09
62710;BME280;48770;51.624;5.886;2023-07-29T00:26:23;100543.03;;;24.64;48.48
62710;BME280;48770;51.624;5.886;2023-07-29T00:28:51;100545.47;;;24.66;48.27
62710;BME280;48770;51.624;5.886;2023-07-29T00:31:16;100541.84;;;24.65;48.29
62710;BME280;48770;51.624;5.886;2023-07-29T00:33:41;100538.25;;;24.65;48.18
62710;BME280;48770;51.624;5.886;2023-07-29T00:36:06;100536.66;;;24.64;48.25
62710;BME280;48770;51.624;5.886;2023-07-29T00:38:32;100544.66;;;24.65;48.06
62710;BME280;48770;51.624;5.886;2023-07-29T00:40:57;100545.84;;;24.64;48.25
62710;BME280;48770;51.624;5.886;2023-07-29T00:43:23;100551.03;;;24.66;48.23
62710;BME280;48770;51.624;5.886;2023-07-29T00:45:49;100555.84;;;24.65;48.16
62710;BME280;48770;51.624;5.886;2023-07-29T00:48:14;100557.03;;;24.64;48.41
62710;BME280;48770;51.624;5.886;2023-07-29T00:50:40;100557.03;;;24.64;48.30
62710;BME280;48770;51.624;5.886;2023-07-29T00:53:06;100564.22;;;24.65;48.56
62710;BME280;48770;51.624;5.886;2023-07-29T00:55:31;100567.03;;;24.65;48.02
62710;BME280;48770;51.624;5.886;2023-07-29T00:57:57;100561.44;;;24.65;48.16
62710;BME280;48770;51.624;5.886;2023-07-29T01:00:22;100554.22;;;24.64;48.50
62710;BME280;48770;51.624;5.886;2023-07-29T01:02:48;100554.22;;;24.64;48.34
62710;BME280;48770;51.624;5.886;2023-07-29T01:05:16;100547.84;;;24.64;48.46
62710;BME280;48770;51.624;5.886;2023-07-29T01:07:59;100536.66;;;24.64;48.16
62710;BME280;48770;51.624;5.886;2023-07-29T01:11:12;100525.44;;;24.60;48.19
62710;BME280;48770;51.624;5.886;2023-07-29T01:14:26;100530.63;;;24.58;48.67
62710;BME280;48770;51.624;5.886;2023-07-29T01:17:00;100532.22;;;24.59;48.39
62710;BME280;48770;51.624;5.886;2023-07-29T01:19:48;100529.81;;;24.57;48.58
62710;BME280;48770;51.624;5.886;2023-07-29T01:22:21;100529.44;;;24.59;48.62
62710;BME280;48770;51.624;5.886;2023-07-29T01:24:46;100530.22;;;24.59;48.46
62710;BME280;48770;51.624;5.886;2023-07-29T01:27:11;100531.03;;;24.60;48.44
62710;BME280;48770;51.624;5.886;2023-07-29T01:29:37;100541.84;;;24.62;48.38
62710;BME280;48770;51.624;5.886;2023-07-29T01:32:08;100540.22;;;24.60;48.57
62710;BME280;48770;51.624;5.886;2023-07-29T01:34:43;100539.03;;;24.62;48.55
62710;BME280;48770;51.624;5.886;2023-07-29T01:37:14;100532.66;;;24.61;48.24
62710;BME280;48770;51.624;5.886;2023-07-29T01:39:41;100540.63;;;24.63;48.35
62710;BME280;48770;51.624;5.886;2023-07-29T01:42:07;100535.84;;;24.63;48.64
62710;BME280;48770;51.624;5.886;2023-07-29T01:44:32;100537.03;;;24.62;48.43
62710;BME280;48770;51.624;5.886;2023-07-29T01:46:59;100535.06;;;24.63;47.97
62710;BME280;48770;51.624;5.886;2023-07-29T01:49:24;100535.84;;;24.63;48.10
62710;BME280;48770;51.624;5.886;2023-07-29T01:51:50;100537.03;;;24.62;48.47
62710;BME280;48770;51.624;5.886;2023-07-29T01:54:15;100534.25;;;24.62;48.43
62710;BME280;48770;51.624;5.886;2023-07-29T01:56:40;100539.03;;;24.62;48.65
62710;BME280;48770;51.624;5.886;2023-07-29T01:59:05;100530.66;;;24.62;48.25
62710;BME280;48770;51.624;5.886;2023-07-29T02:01:31;100534.25;;;24.62;48.29
62710;BME280;48770;51.624;5.886;2023-07-29T02:03:56;100533.44;;;24.62;48.24
62710;BME280;48770;51.624;5.886;2023-07-29T02:06:21;100527.84;;;24.62;48.42
62710;BME280;48770;51.624;5.886;2023-07-29T02:08:47;100533.44;;;24.62;48.42
62710;BME280;48770;51.624;5.886;2023-07-29T02:11:12;100534.25;;;24.62;48.06
62710;BME280;48770;51.624;5.886;2023-07-29T02:13:37;100530.66;;;24.62;48.22
62710;BME280;48770;51.624;5.886;2023-07-29T02:16:03;100537.03;;;24.62;48.18
62710;BME280;48770;51.624;5.886;2023-07-29T02:18:28;100534.25;;;24.62;48.48
62710;BME280;48770;51.624;5.886;2023-07-29T02:20:54;100534.25;;;24.62;48.25
62710;BME280;48770;51.624;5.886;2023-07-29T02:23:19;100536.25;;;24.62;48.45
62710;BME280;48770;51.624;5.886;2023-07-29T02:25:44;100536.63;;;24.60;48.05
62710;BME280;48770;51.624;5.886;2023-07-29T02:28:10;100540.22;;;24.60;48.30
62710;BME280;48770;51.624;5.886;2023-07-29T02:30:36;100543.81;;;24.61;48.18
62710;BME280;48770;51.624;5.886;2023-07-29T02:33:01;100537.03;;;24.62;48.10
62710;BME280;48770;51.624;5.886;2023-07-29T02:35:27;100537.03;;;24.62;48.23
62710;BME280;48770;51.624;5.886;2023-07-29T02:37:53;100537.03;;;24.62;48.33
62710;BME280;48770;51.624;5.886;2023-07-29T02:40:18;100530.66;;;24.62;48.03
62710;BME280;48770;51.624;5.886;2023-07-29T02:42:46;100531.44;;;24.62;48.23
62710;BME280;48770;51.624;5.886;2023-07-29T02:45:11;100528.25;;;24.60;48.13
62710;BME280;48770;51.624;5.886;2023-07-29T02:47:37;100534.25;;;24.62;48.44
62710;BME280;48770;51.624;5.886;2023-07-29T02:50:03;100533.44;;;24.62;48.38
62710;BME280;48770;51.624;5.886;2023-07-29T02:52:28;100537.03;;;24.62;48.17
62710;BME280;48770;51.624;5.886;2023-07-29T02:54:53;100533.84;;;24.60;47.95
62710;BME280;48770;51.624;5.886;2023-07-29T02:57:19;100535.44;;;24.61;48.01
62710;BME280;48770;51.624;5.886;2023-07-29T02:59:45;100538.22;;;24.61;48.33
62710;BME280;48770;51.624;5.886;2023-07-29T03:02:11;100532.66;;;24.61;48.18
62710;BME280;48770;51.624;5.886;2023-07-29T03:04:36;100517.47;;;24.62;48.00
62710;BME280;48770;51.624;5.886;2023-07-29T03:07:01;100532.66;;;24.61;48.00
62710;BME280;48770;51.624;5.886;2023-07-29T03:09:27;100528.66;;;24.62;48.25
62710;BME280;48770;51.624;5.886;2023-07-29T03:11:53;100528.66;;;24.62;48.10
62710;BME280;48770;51.624;5.886;2023-07-29T03:14:20;100527.06;;;24.61;48.19
62710;BME280;48770;51.624;5.886;2023-07-29T03:16:45;100527.06;;;24.61;47.92
62710;BME280;48770;51.624;5.886;2023-07-29T03:19:12;100527.06;;;24.61;48.21
62710;BME280;48770;51.624;5.886;2023-07-29T03:21:37;100523.06;;;24.62;48.16
62710;BME280;48770;51.624;5.886;2023-07-29T03:24:02;100518.66;;;24.61;47.91
62710;BME280;48770;51.624;5.886;2023-07-29T03:26:28;100516.66;;;24.62;48.20
62710;BME280;48770;51.624;5.886;2023-07-29T03:28:53;100514.25;;;24.60;48.19
62710;BME280;48770;51.624;5.886;2023-07-29T03:31:18;100511.47;;;24.60;48.26
62710;BME280;48770;51.624;5.886;2023-07-29T03:33:44;100513.47;;;24.59;47.92
62710;BME280;48770;51.624;5.886;2023-07-29T03:36:09;100507.88;;;24.59;47.91
62710;BME280;48770;51.624;5.886;2023-07-29T03:38:34;100523.44;;;24.60;48.06
62710;BME280;48770;51.624;5.886;2023-07-29T03:41:00;100523.44;;;24.60;47.75
62710;BME280;48770;51.624;5.886;2023-07-29T03:43:27;100525.44;;;24.60;48.01
62710;BME280;48770;51.624;5.886;2023-07-29T03:45:53;100527.44;;;24.59;47.88
62710;BME280;48770;51.624;5.886;2023-07-29T03:48:18;100529.44;;;24.59;47.99
62710;BME280;48770;51.624;5.886;2023-07-29T03:50:43;100531.03;;;24.60;47.77
62710;BME280;48770;51.624;5.886;2023-07-29T03:53:09;100526.63;;;24.59;47.90
62710;BME280;48770;51.624;5.886;2023-07-29T03:55:35;100538.22;;;24.61;47.83
62710;BME280;48770;51.624;5.886;2023-07-29T03:58:00;100542.22;;;24.60;48.12
62710;BME280;48770;51.624;5.886;2023-07-29T04:00:26;100530.22;;;24.59;47.85
62710;BME280;48770;51.624;5.886;2023-07-29T04:02:52;100542.22;;;24.60;47.98
62710;BME280;48770;51.624;5.886;2023-07-29T04:05:17;100543.03;;;24.60;47.91
62710;BME280;48770;51.624;5.886;2023-07-29T04:07:42;100539.81;;;24.58;47.83
62710;BME280;48770;51.624;5.886;2023-07-29T04:10:08;100536.63;;;24.60;47.81
62710;BME280;48770;51.624;5.886;2023-07-29T04:12:34;100533.03;;;24.59;48.25
62710;BME280;48770;51.624;5.886;2023-07-29T04:14:59;100530.22;;;24.59;48.17
62710;BME280;48770;51.624;5.886;2023-07-29T04:17:25;100533.84;;;24.60;48.06
62710;BME280;48770;51.624;5.886;2023-07-29T04:19:50;100532.22;;;24.59;47.51
62710;BME280;48770;51.624;5.886;2023-07-29T04:22:16;100518.25;;;24.59;47.67
62710;BME280;48770;51.624;5.886;2023-07-29T04:24:41;100501.47;;;24.59;47.82
62710;BME280;48770;51.624;5.886;2023-07-29T04:27:06;100505.47;;;24.58;47.96
62710;BME280;48770;51.624;5.886;2023-07-29T04:29:32;100495.09;;;24.58;47.94
62710;BME280;48770;51.624;5.886;2023-07-29T04:31:57;100511.06;;;24.58;47.99
62710;BME280;48770;51.624;5.886;2023-07-29T04:34:22;100509.44;;;24.57;47.57
62710;BME280;48770;51.624;5.886;2023-07-29T04:36:48;100498.69;;;24.59;47.89
62710;BME280;48770;51.624;5.886;2023-07-29T04:39:14;100512.66;;;24.59;47.73
62710;BME280;48770;51.624;5.886;2023-07-29T04:41:39;100515.44;;;24.59;48.02
62710;BME280;48770;51.624;5.886;2023-07-29T04:44:05;100516.66;;;24.58;48.09
62710;BME280;48770;51.624;5.886;2023-07-29T04:46:30;100538.19;;;24.57;47.71
62710;BME280;48770;51.624;5.886;2023-07-29T04:48:56;100552.97;;;24.58;48.02
62710;BME280;48770;51.624;5.886;2023-07-29T04:51:21;100555.78;;;24.58;47.82
62710;BME280;48770;51.624;5.886;2023-07-29T04:53:47;100560.19;;;24.59;47.61
62710;BME280;48770;51.624;5.886;2023-07-29T04:56:12;100564.97;;;24.58;47.94
62710;BME280;48770;51.624;5.886;2023-07-29T04:58:38;100553.78;;;24.58;48.10
62710;BME280;48770;51.624;5.886;2023-07-29T05:01:03;100560.56;;;24.57;48.01
62710;BME280;48770;51.624;5.886;2023-07-29T05:03:29;100557.38;;;24.59;47.70
62710;BME280;48770;51.624;5.886;2023-07-29T05:05:54;100560.56;;;24.57;47.54
62710;BME280;48770;51.624;5.886;2023-07-29T05:08:21;100562.97;;;24.59;47.67
62710;BME280;48770;51.624;5.886;2023-07-29T05:10:50;100562.19;;;24.58;47.68
62710;BME280;48770;51.624;5.886;2023-07-29T05:13:16;100560.19;;;24.59;48.00
62710;BME280;48770;51.624;5.886;2023-07-29T05:15:41;100556.59;;;24.58;47.90
62710;BME280;48770;51.624;5.886;2023-07-29T05:18:06;100556.59;;;24.58;47.52
62710;BME280;48770;51.624;5.886;2023-07-29T05:20:32;100556.59;;;24.58;47.83
62710;BME280;48770;51.624;5.886;2023-07-29T05:22:57;100569.38;;;24.59;47.94
62710;BME280;48770;51.624;5.886;2023-07-29T05:25:22;100566.97;;;24.58;48.07
62710;BME280;48770;51.624;5.886;2023-07-29T05:27:47;100574.16;;;24.59;47.77
62710;BME280;48770;51.624;5.886;2023-07-29T05:30:13;100583.72;;;24.58;47.82
62710;BME280;48770;51.624;5.886;2023-07-29T05:32:38;100578.16;;;24.58;47.83
62710;BME280;48770;51.624;5.886;2023-07-29T05:35:04;100602.13;;;24.59;47.89
62710;BME280;48770;51.624;5.886;2023-07-29T05:37:29;100589.31;;;24.58;48.03
62710;BME280;48770;51.624;5.886;2023-07-29T05:39:54;100595.72;;;24.58;48.13
62710;BME280;48770;51.624;5.886;2023-07-29T05:42:19;100584.53;;;24.58;47.84
62710;BME280;48770;51.624;5.886;2023-07-29T05:44:45;100588.53;;;24.57;47.68
62710;BME280;48770;51.624;5.886;2023-07-29T05:47:10;100590.94;;;24.59;48.00
62710;BME280;48770;51.624;5.886;2023-07-29T05:49:35;100583.72;;;24.58;47.84
62710;BME280;48770;51.624;5.886;2023-07-29T05:52:01;100587.34;;;24.58;47.65
62710;BME280;48770;51.624;5.886;2023-07-29T05:54:26;100585.72;;;24.57;47.44
62710;BME280;48770;51.624;5.886;2023-07-29T05:56:51;100590.94;;;24.59;47.96
62710;BME280;48770;51.624;5.886;2023-07-29T05:59:17;100584.94;;;24.57;47.70
62710;BME280;48770;51.624;5.886;2023-07-29T06:01:42;100585.34;;;24.59;47.54
62710;BME280;48770;51.624;5.886;2023-07-29T06:04:08;100582.53;;;24.59;47.90
62710;BME280;48770;51.624;5.886;2023-07-29T06:06:33;100577.34;;;24.57;47.50
62710;BME280;48770;51.624;5.886;2023-07-29T06:08:58;100588.13;;;24.59;47.82
62710;BME280;48770;51.624;5.886;2023-07-29T06:11:23;100588.13;;;24.59;47.69
62710;BME280;48770;51.624;5.886;2023-07-29T06:13:49;100591.72;;;24.59;47.86
62710;BME280;48770;51.624;5.886;2023-07-29T06:16:14;100586.13;;;24.59;47.45
62710;BME280;48770;51.624;5.886;2023-07-29T06:18:39;100582.16;;;24.60;47.78
62710;BME280;48770;51.624;5.886;2023-07-29T06:21:04;100589.34;;;24.62;47.42
62710;BME280;48770;51.624;5.886;2023-07-29T06:23:33;100577.78;;;24.63;47.86
62710;BME280;48770;51.624;5.886;2023-07-29T06:25:58;100581.00;;;24.65;47.47
62710;BME280;48770;51.624;5.886;2023-07-29T06:28:25;100575.41;;;24.65;47.63
62710;BME280;48770;51.624;5.886;2023-07-29T06:30:51;100583.78;;;24.65;47.53
62710;BME280;48770;51.624;5.886;2023-07-29T06:33:16;100579.81;;;24.66;47.26
62710;BME280;48770;51.624;5.886;2023-07-29T06:35:41;100576.22;;;24.66;47.23
62710;BME280;48770;51.624;5.886;2023-07-29T06:38:07;100576.22;;;24.66;47.59
62710;BME280;48770;51.624;5.886;2023-07-29T06:40:32;100584.22;;;24.67;47.43
62710;BME280;48770;51.624;5.886;2023-07-29T06:42:57;100577.00;;;24.66;47.61
62710;BME280;48770;51.624;5.886;2023-07-29T06:45:22;100581.41;;;24.67;47.52
62710;BME280;48770;51.624;5.886;2023-07-29T06:47:48;100587.00;;;24.67;47.56
62710;BME280;48770;51.624;5.886;2023-07-29T06:50:13;100585.41;;;24.66;47.27
62710;BME280;48770;51.624;5.886;2023-07-29T06:52:38;100587.00;;;24.67;47.53
62710;BME280;48770;51.624;5.886;2023-07-29T06:55:05;100582.22;;;24.68;47.22
62710;BME280;48770;51.624;5.886;2023-07-29T06:57:31;100590.59;;;24.68;47.24
62710;BME280;48770;51.624;5.886;2023-07-29T06:59:56;100594.19;;;24.68;47.50
62710;BME280;48770;51.624;5.886;2023-07-29T07:02:21;100588.63;;;24.68;47.06
62710;BME280;48770;51.624;5.886;2023-07-29T07:04:47;100588.63;;;24.68;47.34
62710;BME280;48770;51.624;5.886;2023-07-29T07:07:12;100591.41;;;24.68;47.39
62710;BME280;48770;51.624;5.886;2023-07-29T07:09:37;100598.59;;;24.69;47.20
62710;BME280;48770;51.624;5.886;2023-07-29T07:12:03;100595.81;;;24.69;47.09
62710;BME280;48770;51.624;5.886;2023-07-29T07:14:28;100595.81;;;24.69;47.33
62710;BME280;48770;51.624;5.886;2023-07-29T07:16:53;100600.59;;;24.69;47.44
62710;BME280;48770;51.624;5.886;2023-07-29T07:19:19;100608.59;;;24.70;47.60
62710;BME280;48770;51.624;5.886;2023-07-29T07:21:44;100600.22;;;24.70;47.36
62710;BME280;48770;51.624;5.886;2023-07-29T07:24:09;100603.00;;;24.70;47.23
62710;BME280;48770;51.624;5.886;2023-07-29T07:26:34;100605.81;;;24.70;47.54
62710;BME280;48770;51.624;5.886;2023-07-29T07:29:00;100601.81;;;24.71;47.18
62710;BME280;48770;51.624;5.886;2023-07-29T07:31:25;100603.00;;;24.70;47.20
62710;BME280;48770;51.624;5.886;2023-07-29T07:33:51;100605.81;;;24.70;46.99
62710;BME280;48770;51.624;5.886;2023-07-29T07:36:16;100606.25;;;24.72;47.13
62710;BME280;48770;51.624;5.886;2023-07-29T07:38:41;100608.22;;;24.72;47.17
62710;BME280;48770;51.624;5.886;2023-07-29T07:41:07;100604.63;;;24.71;46.97
62710;BME280;48770;51.624;5.886;2023-07-29T07:43:32;100612.66;;;24.73;47.13
62710;BME280;48770;51.624;5.886;2023-07-29T07:45:59;100612.25;;;24.74;46.96
62710;BME280;48770;51.624;5.886;2023-07-29T07:48:25;100613.44;;;24.73;47.13
62710;BME280;48770;51.624;5.886;2023-07-29T07:50:50;100616.25;;;24.73;47.23
62710;BME280;48770;51.624;5.886;2023-07-29T07:53:16;100614.63;;;24.72;47.29
62710;BME280;48770;51.624;5.886;2023-07-29T07:55:41;100613.44;;;24.73;46.90
62710;BME280;48770;51.624;5.886;2023-07-29T07:58:06;100608.66;;;24.74;46.82
62710;BME280;48770;51.624;5.886;2023-07-29T08:00:32;100613.06;;;24.75;47.36
62710;BME280;48770;51.624;5.886;2023-07-29T08:02:57;100616.66;;;24.75;47.01
62710;BME280;48770;51.624;5.886;2023-07-29T08:05:22;100612.69;;;24.76;47.21
62710;BME280;48770;51.624;5.886;2023-07-29T08:07:47;100613.47;;;24.77;46.75
62710;BME280;48770;51.624;5.886;2023-07-29T08:10:13;100616.69;;;24.79;46.90
62710;BME280;48770;51.624;5.886;2023-07-29T08:12:38;100607.50;;;24.78;46.78
62710;BME280;48770;51.624;5.886;2023-07-29T08:15:04;100613.91;;;24.79;46.80
62710;BME280;48770;51.624;5.886;2023-07-29T08:17:30;100612.72;;;24.80;46.71
62710;BME280;48770;51.624;5.886;2023-07-29T08:19:55;100617.50;;;24.79;46.94
62710;BME280;48770;51.624;5.886;2023-07-29T08:22:20;100607.13;;;24.80;47.03
62710;BME280;48770;51.624;5.886;2023-07-29T08:24:46;100619.09;;;24.80;47.00
62710;BME280;48770;51.624;5.886;2023-07-29T08:27:11;100617.91;;;24.81;46.92
62710;BME280;48770;51.624;5.886;2023-07-29T08:29:36;100613.13;;;24.82;46.92
62710;BME280;48770;51.624;5.886;2023-07-29T08:32:02;100611.94;;;24.83;46.69
62710;BME280;48770;51.624;5.886;2023-07-29T08:34:27;100623.94;;;24.83;47.04
62710;BME280;48770;51.624;5.886;2023-07-29T08:36:53;100621.13;;;24.83;46.74
62710;BME280;48770;51.624;5.886;2023-07-29T08:39:18;100617.13;;;24.84;46.67
62710;BME280;48770;51.624;5.886;2023-07-29T08:44:26;100634.72;;;24.85;46.58
62710;BME280;48770;51.624;5.886;2023-07-29T08:46:56;100642.72;;;24.86;46.59
62710;BME280;48770;51.624;5.886;2023-07-29T08:49:22;100641.53;;;24.87;46.54
62710;BME280;48770;51.624;5.886;2023-07-29T08:51:49;100642.72;;;24.86;46.57
62710;BME280;48770;51.624;5.886;2023-07-29T08:54:15;100643.94;;;24.89;46.40
62710;BME280;48770;51.624;5.886;2023-07-29T08:56:41;100633.56;;;24.89;46.40
62710;BME280;48770;51.624;5.886;2023-07-29T08:59:08;100639.16;;;24.89;46.68
62710;BME280;48770;51.624;5.886;2023-07-29T09:01:33;100623.19;;;24.90;46.61
62710;BME280;48770;51.624;5.886;2023-07-29T09:03:59;100618.78;;;24.89;46.55
62710;BME280;48770;51.624;5.886;2023-07-29T09:06:24;100613.97;;;24.89;46.31
62710;BME280;48770;51.624;5.886;2023-07-29T09:08:56;100629.56;;;24.90;46.62
62710;BME280;48770;51.624;5.886;2023-07-29T09:11:22;100630.38;;;24.91;46.67
62710;BME280;48770;51.624;5.886;2023-07-29T09:13:48;100614.41;;;24.91;46.39
62710;BME280;48770;51.624;5.886;2023-07-29T09:16:13;100621.19;;;24.90;46.33
62710;BME280;48770;51.624;5.886;2023-07-29T09:18:39;100618.38;;;24.90;46.42
62710;BME280;48770;51.624;5.886;2023-07-29T09:21:04;100624.38;;;24.89;46.59
62710;BME280;48770;51.624;5.886;2023-07-29T09:23:43;100611.56;;;24.88;46.50
62710;BME280;48770;51.624;5.886;2023-07-29T09:26:09;100607.97;;;24.87;46.85
62710;BME280;48770;51.624;5.886;2023-07-29T09:28:39;100605.56;;;24.86;46.52
62710;BME280;48770;51.624;5.886;2023-07-29T09:31:05;100597.97;;;24.86;46.72
62710;BME280;48770;51.624;5.886;2023-07-29T09:33:34;100601.97;;;24.85;46.96
62710;BME280;48770;51.624;5.886;2023-07-29T09:36:04;100594.78;;;24.84;46.61
62710;BME280;48770;51.624;5.886;2023-07-29T09:38:34;100603.16;;;24.84;46.71
62710;BME280;48770;51.624;5.886;2023-07-29T09:41:00;100603.16;;;24.84;46.58
62710;BME280;48770;51.624;5.886;2023-07-29T09:43:31;100600.75;;;24.83;46.73
62710;BME280;48770;51.624;5.886;2023-07-29T09:46:04;100605.53;;;24.82;46.60
62710;BME280;48770;51.624;5.886;2023-07-29T09:48:35;100597.16;;;24.82;46.81
62710;BME280;48770;51.624;5.886;2023-07-29T09:51:14;100598.72;;;24.80;46.94
62710;BME280;48770;51.624;5.886;2023-07-29T09:53:47;100597.91;;;24.79;46.84
62710;BME280;48770;51.624;5.886;2023-07-29T09:56:14;100596.31;;;24.78;46.78
62710;BME280;48770;51.624;5.886;2023-07-29T09:58:39;100601.09;;;24.78;47.04
62710;BME280;48770;51.624;5.886;2023-07-29T10:01:08;100597.91;;;24.79;46.88
62710;BME280;48770;51.624;5.886;2023-07-29T10:03:35;100604.72;;;24.78;46.80
62710;BME280;48770;51.624;5.886;2023-07-29T10:06:04;100607.50;;;24.78;47.27
62710;BME280;48770;51.624;5.886;2023-07-29T10:08:30;100600.31;;;24.77;46.84
62710;BME280;48770;51.624;5.886;2023-07-29T10:11:05;100602.28;;;24.77;47.10
62710;BME280;48770;51.624;5.886;2023-07-29T10:13:32;100611.50;;;24.77;46.85
62710;BME280;48770;51.624;5.886;2023-07-29T10:15:57;100616.66;;;24.75;46.90
62710;BME280;48770;51.624;5.886;2023-07-29T10:18:23;100611.06;;;24.75;46.86
62710;BME280;48770;51.624;5.886;2023-07-29T10:20:51;100614.66;;;24.76;46.57
62710;BME280;48770;51.624;5.886;2023-07-29T10:23:18;100616.66;;;24.75;46.85
62710;BME280;48770;51.624;5.886;2023-07-29T10:25:47;100608.28;;;24.75;46.72
62710;BME280;48770;51.624;5.886;2023-07-29T10:28:14;100610.28;;;24.75;47.03
62710;BME280;48770;51.624;5.886;2023-07-29T10:30:41;100607.47;;;24.75;46.90
62710;BME280;48770;51.624;5.886;2023-07-29T10:33:06;100609.47;;;24.74;46.98
62710;BME280;48770;51.624;5.886;2023-07-29T10:35:33;100604.69;;;24.75;46.72
62710;BME280;48770;51.624;5.886;2023-07-29T10:37:59;100601.06;;;24.74;46.85
62710;BME280;48770;51.624;5.886;2023-07-29T10:40:24;100593.88;;;24.73;46.75
62710;BME280;48770;51.624;5.886;2023-07-29T10:43:09;100599.47;;;24.73;46.71
62710;BME280;48770;51.624;5.886;2023-07-29T10:45:39;100589.47;;;24.72;47.05
62710;BME280;48770;51.624;5.886;2023-07-29T10:54:24;100594.59;;;24.67;47.31
62710;BME280;48770;51.624;5.886;2023-07-29T10:56:49;100586.22;;;24.70;47.16
62710;BME280;48770;51.624;5.886;2023-07-29T11:01:51;100583.06;;;24.72;47.24
62710;BME280;48770;51.624;5.886;2023-07-29T11:17:35;100590.63;;;24.71;47.55
62710;BME280;48770;51.624;5.886;2023-07-29T11:20:02;100590.28;;;24.73;47.66
62710;BME280;48770;51.624;5.886;2023-07-29T11:22:29;100597.03;;;24.72;47.61
62710;BME280;48770;51.624;5.886;2023-07-29T11:24:54;100592.28;;;24.72;47.54
62710;BME280;48770;51.624;5.886;2023-07-29T11:27:20;100598.66;;;24.73;47.42
62710;BME280;48770;51.624;5.886;2023-07-29T11:29:46;100584.69;;;24.73;47.66
62710;BME280;48770;51.624;5.886;2023-07-29T11:32:11;100582.69;;;24.73;47.78
62710;BME280;48770;51.624;5.886;2023-07-29T11:34:37;100584.69;;;24.73;47.49
62710;BME280;48770;51.624;5.886;2023-07-29T11:37:02;100588.28;;;24.73;47.59
62710;BME280;48770;51.624;5.886;2023-07-29T11:39:28;100585.50;;;24.73;47.57
62710;BME280;48770;51.624;5.886;2023-07-29T11:41:53;100581.09;;;24.72;47.64
62710;BME280;48770;51.624;5.886;2023-07-29T11:44:18;100579.91;;;24.73;47.43
62710;BME280;48770;51.624;5.886;2023-07-29T11:46:44;100585.50;;;24.73;47.67
62710;BME280;48770;51.624;5.886;2023-07-29T11:49:10;100578.72;;;24.74;47.67
62710;BME280;48770;51.624;5.886;2023-07-29T11:51:38;100577.91;;;24.74;47.50
62710;BME280;48770;51.624;5.886;2023-07-29T11:54:03;100584.31;;;24.74;47.85
62710;BME280;48770;51.624;5.886;2023-07-29T11:56:29;100589.91;;;24.74;47.88
62710;BME280;48770;51.624;5.886;2023-07-29T11:58:55;100591.50;;;24.75;47.64
62710;BME280;48770;51.624;5.886;2023-07-29T12:01:20;100594.28;;;24.75;47.71
62710;BME280;48770;51.624;5.886;2023-07-29T12:03:47;100588.69;;;24.75;47.66
62710;BME280;48770;51.624;5.886;2023-07-29T12:06:13;100588.69;;;24.75;47.48
62710;BME280;48770;51.624;5.886;2023-07-29T12:08:39;100577.53;;;24.75;47.73
62710;BME280;48770;51.624;5.886;2023-07-29T12:11:04;100590.31;;;24.76;47.64
62710;BME280;48770;51.624;5.886;2023-07-29T12:13:30;100583.09;;;24.75;47.48
62710;BME280;48770;51.624;5.886;2023-07-29T12:16:01;100588.69;;;24.75;47.74
62710;BME280;48770;51.624;5.886;2023-07-29T12:18:33;100587.91;;;24.75;47.48
62710;BME280;48770;51.624;5.886;2023-07-29T12:20:59;100588.69;;;24.75;47.81
62710;BME280;48770;51.624;5.886;2023-07-29T12:23:25;100581.13;;;24.76;47.73
62710;BME280;48770;51.624;5.886;2023-07-29T12:25:56;100577.13;;;24.77;47.74
62710;BME280;48770;51.624;5.886;2023-07-29T12:28:22;100591.91;;;24.77;47.73
62710;BME280;48770;51.624;5.886;2023-07-29T12:30:48;100584.72;;;24.76;47.66
62710;BME280;48770;51.624;5.886;2023-07-29T12:33:33;100606.28;;;24.76;47.71
62710;BME280;48770;51.624;5.886;2023-07-29T12:35:59;100611.88;;;24.76;47.74
62710;BME280;48770;51.624;5.886;2023-07-29T12:38:28;100621.88;;;24.77;47.86
62710;BME280;48770;51.624;5.886;2023-07-29T12:40:54;100617.09;;;24.77;47.72
62710;BME280;48770;51.624;5.886;2023-07-29T12:43:19;100613.47;;;24.77;47.63
62710;BME280;48770;51.624;5.886;2023-07-29T12:45:45;100621.06;;;24.76;47.51
62710;BME280;48770;51.624;5.886;2023-07-29T12:48:11;100627.06;;;24.78;47.92
62710;BME280;48770;51.624;5.886;2023-07-29T12:50:37;100628.69;;;24.79;47.58
62710;BME280;48770;51.624;5.886;2023-07-29T12:53:04;100645.47;;;24.79;47.64
62710;BME280;48770;51.624;5.886;2023-07-29T12:55:30;100684.63;;;24.79;47.42
62710;BME280;48770;51.624;5.886;2023-07-29T12:57:55;100658.63;;;24.79;47.65
62710;BME280;48770;51.624;5.886;2023-07-29T13:00:21;100677.41;;;24.78;47.63
62710;BME280;48770;51.624;5.886;2023-07-29T13:02:46;100656.66;;;24.79;47.52
62710;BME280;48770;51.624;5.886;2023-07-29T13:05:12;100648.25;;;24.79;47.44
62710;BME280;48770;51.624;5.886;2023-07-29T13:07:39;100661.06;;;24.80;47.74
62710;BME280;48770;51.624;5.886;2023-07-29T13:10:04;100663.03;;;24.80;47.64
62710;BME280;48770;51.624;5.886;2023-07-29T13:12:30;100662.25;;;24.79;47.81